Time;durP1;ratioP1;P1;durP2;ratioP2;P2;SDS_P1;SDS_P2;PMS_P1;PMS_P2;Temp;Humidity;BMP_temperature;BMP_pressure;BME280_temperature;BME280_humidity;BME280_pressure;Samples;Min_cycle;Max_cycle;Signal;HPM_P1;HPM_P2
2021/09/12 00:00:24;;;;;;;16.50;14.90;;;20.50;99.90;;;;;;4998857;28;20252;-71
2021/09/12 00:02:50;;;;;;;16.70;15.17;;;20.60;99.90;;;;;;5012766;28;20202;-67
2021/09/12 00:05:16;;;;;;;17.93;16.10;;;20.60;99.90;;;;;;4993811;28;20619;-67
2021/09/12 00:07:42;;;;;;;17.30;15.70;;;20.60;99.90;;;;;;4993305;28;20270;-68
2021/09/12 00:10:08;;;;;;;16.47;14.87;;;20.60;99.90;;;;;;4994558;28;21011;-67
2021/09/12 00:12:34;;;;;;;16.60;15.00;;;20.60;99.90;;;;;;4993213;28;20191;-67
2021/09/12 00:15:00;;;;;;;17.70;15.73;;;20.60;99.90;;;;;;4994634;28;20514;-68
2021/09/12 00:17:26;;;;;;;17.47;15.80;;;20.60;99.90;;;;;;4993660;28;20678;-68
2021/09/12 00:19:52;;;;;;;17.63;15.93;;;20.60;99.90;;;;;;4994001;28;20446;-68
2021/09/12 00:22:18;;;;;;;20.07;17.33;;;20.60;99.90;;;;;;4993254;28;20250;-67
2021/09/12 00:24:43;;;;;;;18.23;16.07;;;20.60;99.90;;;;;;4993168;28;20204;-67
2021/09/12 00:27:09;;;;;;;19.57;16.87;;;20.60;99.90;;;;;;4994545;28;20183;-66
2021/09/12 00:29:35;;;;;;;18.47;16.80;;;20.60;99.90;;;;;;4992835;28;20226;-68
2021/09/12 00:32:01;;;;;;;19.57;17.57;;;20.60;99.90;;;;;;4994082;28;20183;-67
2021/09/12 00:34:26;;;;;;;17.97;16.10;;;20.60;99.90;;;;;;4993421;28;20187;-68
2021/09/12 00:36:52;;;;;;;20.57;18.57;;;20.60;99.90;;;;;;4976014;28;20191;-67
2021/09/12 00:39:18;;;;;;;20.70;18.50;;;20.60;99.90;;;;;;4993407;28;20176;-68
2021/09/12 00:41:45;;;;;;;21.47;17.80;;;20.70;99.90;;;;;;4992910;28;20258;-67
2021/09/12 00:44:12;;;;;;;19.20;17.27;;;20.60;99.90;;;;;;4993610;28;20179;-67
2021/09/12 00:46:46;;;;;;;19.63;17.60;;;20.70;99.90;;;;;;4989774;28;20416;-67
2021/09/12 00:49:13;;;;;;;19.30;17.40;;;20.70;99.90;;;;;;4975143;28;20420;-67
2021/09/12 00:51:39;;;;;;;22.47;20.07;;;20.60;99.90;;;;;;4975187;28;20486;-67
2021/09/12 00:54:07;;;;;;;20.67;18.50;;;20.70;99.90;;;;;;4993496;28;20455;-67
2021/09/12 00:56:36;;;;;;;20.47;18.30;;;20.70;99.90;;;;;;4990174;28;20414;-68
2021/09/12 00:59:04;;;;;;;20.43;18.33;;;20.70;99.90;;;;;;4989514;28;20415;-67
2021/09/12 01:01:32;;;;;;;21.40;19.20;;;20.70;99.90;;;;;;4990877;28;20438;-67
2021/09/12 01:03:59;;;;;;;22.37;19.97;;;20.70;99.90;;;;;;4975710;28;20399;-68
2021/09/12 01:06:25;;;;;;;22.17;19.83;;;20.70;99.90;;;;;;4974884;28;20838;-71
2021/09/12 01:08:51;;;;;;;22.03;19.80;;;20.70;99.90;;;;;;4975730;28;20920;-67
2021/09/12 01:11:17;;;;;;;23.87;21.20;;;20.70;99.90;;;;;;4993039;28;20502;-68
2021/09/12 01:13:44;;;;;;;22.23;19.93;;;20.70;99.90;;;;;;4991887;28;20270;-67
2021/09/12 01:16:11;;;;;;;23.73;21.33;;;20.70;99.90;;;;;;4990187;28;20424;-67
2021/09/12 01:18:38;;;;;;;24.27;21.80;;;20.70;99.90;;;;;;4993343;28;20419;-67
2021/09/12 01:21:03;;;;;;;23.00;20.53;;;20.70;99.90;;;;;;4994304;28;20762;-67
2021/09/12 01:23:29;;;;;;;23.57;21.17;;;20.60;99.90;;;;;;4993453;28;20411;-67
2021/09/12 01:25:56;;;;;;;23.20;20.80;;;20.70;99.90;;;;;;4993027;28;20237;-68
2021/09/12 01:28:22;;;;;;;22.87;20.37;;;20.60;99.90;;;;;;4993732;28;20187;-72
2021/09/12 01:30:48;;;;;;;25.23;20.40;;;20.60;99.90;;;;;;5005676;28;20429;-68
2021/09/12 01:33:13;;;;;;;25.53;22.07;;;20.70;99.90;;;;;;5013391;28;20171;-68
2021/09/12 01:35:39;;;;;;;23.00;20.60;;;20.70;99.90;;;;;;5012854;28;20529;-69
2021/09/12 01:38:05;;;;;;;23.57;21.17;;;20.60;99.90;;;;;;5013475;28;20237;-68
2021/09/12 01:40:31;;;;;;;25.30;20.60;;;20.60;99.90;;;;;;5012716;28;20171;-69
2021/09/12 01:42:59;;;;;;;24.73;21.57;;;20.60;99.90;;;;;;5013428;28;20186;-68
2021/09/12 01:45:25;;;;;;;25.50;22.47;;;20.60;99.90;;;;;;5002435;28;20211;-73
2021/09/12 01:47:51;;;;;;;22.40;19.60;;;20.60;99.90;;;;;;4993233;28;20423;-68
2021/09/12 01:50:17;;;;;;;24.23;21.63;;;20.60;99.90;;;;;;4993751;28;20603;-68
2021/09/12 01:52:43;;;;;;;24.37;21.30;;;20.60;99.90;;;;;;4992483;28;20865;-69
2021/09/12 01:55:10;;;;;;;23.20;20.40;;;20.60;99.90;;;;;;4993380;28;20518;-68
2021/09/12 01:57:36;;;;;;;24.77;21.17;;;20.60;99.90;;;;;;4992768;28;20422;-68
2021/09/12 02:00:03;;;;;;;22.20;20.00;;;20.60;99.90;;;;;;4993237;28;20436;-71
2021/09/12 02:02:28;;;;;;;23.10;20.70;;;20.60;99.90;;;;;;4991986;28;20806;-70
2021/09/12 02:04:54;;;;;;;24.63;20.13;;;20.60;99.90;;;;;;4992941;28;20478;-68
2021/09/12 02:07:20;;;;;;;21.20;18.90;;;20.60;99.90;;;;;;4974759;28;20175;-68
2021/09/12 02:09:46;;;;;;;21.50;18.70;;;20.60;99.90;;;;;;4992562;28;20403;-68
2021/09/12 02:12:12;;;;;;;24.47;19.90;;;20.60;99.90;;;;;;4993406;28;20267;-68
2021/09/12 02:14:37;;;;;;;21.40;19.10;;;20.60;99.90;;;;;;4992020;28;20658;-68
2021/09/12 02:17:03;;;;;;;20.20;18.30;;;20.50;99.90;;;;;;4993021;28;20179;-68
2021/09/12 02:19:29;;;;;;;19.63;17.53;;;20.50;99.90;;;;;;4992012;28;20230;-73
2021/09/12 02:21:54;;;;;;;19.30;17.30;;;20.60;99.90;;;;;;4993217;28;20196;-68
2021/09/12 02:24:20;;;;;;;21.17;18.90;;;20.50;99.90;;;;;;4993098;28;20204;-68
2021/09/12 02:26:46;;;;;;;20.60;18.50;;;20.50;99.90;;;;;;4992205;28;20184;-68
2021/09/12 02:29:11;;;;;;;19.37;17.47;;;20.50;99.90;;;;;;4992654;28;20175;-68
2021/09/12 02:31:37;;;;;;;22.43;17.00;;;20.50;99.90;;;;;;4991679;28;20304;-68
2021/09/12 02:34:03;;;;;;;19.40;17.50;;;20.50;99.90;;;;;;4993094;28;20271;-68
2021/09/12 02:36:29;;;;;;;19.17;17.27;;;20.50;99.90;;;;;;4992125;28;20766;-73
2021/09/12 02:38:54;;;;;;;17.93;16.03;;;20.50;99.90;;;;;;4992573;28;20176;-68
2021/09/12 02:41:20;;;;;;;19.13;16.77;;;20.50;99.90;;;;;;4992940;28;20179;-68
2021/09/12 02:43:46;;;;;;;20.83;17.60;;;20.50;99.90;;;;;;4992177;28;20281;-68
2021/09/12 02:46:12;;;;;;;22.07;18.03;;;20.50;99.90;;;;;;4992806;28;20683;-68
2021/09/12 02:48:38;;;;;;;19.33;17.33;;;20.50;99.90;;;;;;4992159;28;20294;-69
2021/09/12 02:51:04;;;;;;;18.10;16.30;;;20.40;99.90;;;;;;4992866;28;20497;-68
2021/09/12 02:53:30;;;;;;;20.03;17.57;;;20.40;99.90;;;;;;4992246;28;20179;-73
2021/09/12 02:55:55;;;;;;;21.07;17.80;;;20.40;99.90;;;;;;4998870;28;20423;-68
2021/09/12 02:58:21;;;;;;;21.73;18.10;;;20.40;99.90;;;;;;4992776;28;20615;-68
2021/09/12 03:00:47;;;;;;;20.20;18.07;;;20.30;99.90;;;;;;4991862;28;20338;-69
2021/09/12 03:03:12;;;;;;;18.57;16.67;;;20.30;99.90;;;;;;4993089;28;20175;-68
2021/09/12 03:05:38;;;;;;;19.87;17.63;;;20.30;99.90;;;;;;4991636;28;20270;-69
2021/09/12 03:08:04;;;;;;;20.33;18.43;;;20.30;99.90;;;;;;4992671;28;20188;-68
2021/09/12 03:10:30;;;;;;;19.90;18.00;;;20.30;99.90;;;;;;4991687;28;20176;-73
2021/09/12 03:12:56;;;;;;;21.40;17.47;;;20.30;99.90;;;;;;4991885;28;20423;-68
2021/09/12 03:15:21;;;;;;;19.67;17.67;;;20.30;99.90;;;;;;4992642;28;20184;-69
2021/09/12 03:17:47;;;;;;;19.70;17.50;;;20.20;99.90;;;;;;4991798;28;20176;-68
2021/09/12 03:20:13;;;;;;;20.50;16.50;;;20.20;99.90;;;;;;4975293;28;20207;-69
2021/09/12 03:22:39;;;;;;;19.90;17.90;;;20.20;99.90;;;;;;4991716;28;20230;-69
2021/09/12 03:25:06;;;;;;;21.40;18.10;;;20.20;99.90;;;;;;4974483;28;20454;-68
2021/09/12 03:27:32;;;;;;;19.30;17.23;;;20.20;99.90;;;;;;4991548;28;20176;-73
2021/09/12 03:29:58;;;;;;;20.50;18.30;;;20.20;99.90;;;;;;4991933;28;20437;-68
2021/09/12 03:32:24;;;;;;;20.83;18.77;;;20.20;99.90;;;;;;4994287;28;20399;-68
2021/09/12 03:34:49;;;;;;;21.77;19.23;;;20.20;99.90;;;;;;4995358;28;20219;-69
2021/09/12 03:37:15;;;;;;;19.43;17.60;;;20.20;99.90;;;;;;4996283;28;20636;-68
2021/09/12 03:39:41;;;;;;;21.40;19.17;;;20.20;99.90;;;;;;4977821;28;20176;-68
2021/09/12 03:42:07;;;;;;;20.20;18.17;;;20.20;99.90;;;;;;4996098;28;20171;-68
2021/09/12 03:44:32;;;;;;;21.80;19.40;;;20.20;99.90;;;;;;4995508;28;20208;-73
2021/09/12 03:46:58;;;;;;;21.07;18.13;;;20.20;99.90;;;;;;4995808;28;20187;-69
2021/09/12 03:49:24;;;;;;;20.60;18.03;;;20.20;99.90;;;;;;4996269;28;20215;-68
2021/09/12 03:51:49;;;;;;;20.60;18.50;;;20.20;99.90;;;;;;4995017;28;20182;-69
2021/09/12 03:54:16;;;;;;;21.10;18.10;;;20.20;99.90;;;;;;4984268;28;20663;-68
2021/09/12 03:56:41;;;;;;;23.30;19.63;;;20.30;99.90;;;;;;4998174;28;20184;-69
2021/09/12 03:59:07;;;;;;;24.63;19.50;;;20.20;99.90;;;;;;4995802;28;20901;-68
2021/09/12 04:01:33;;;;;;;21.10;18.50;;;20.20;99.90;;;;;;4998701;28;20536;-73
2021/09/12 04:03:59;;;;;;;21.00;18.43;;;20.20;99.90;;;;;;4995147;28;20295;-69
2021/09/12 04:06:25;;;;;;;21.03;18.83;;;20.20;99.90;;;;;;4995682;28;20231;-69
2021/09/12 04:08:51;;;;;;;21.80;19.50;;;20.20;99.90;;;;;;4956880;28;20438;-69
2021/09/12 04:11:17;;;;;;;21.13;18.83;;;20.20;99.90;;;;;;4975897;28;20512;-68
2021/09/12 04:13:43;;;;;;;22.73;19.93;;;20.20;99.90;;;;;;4975371;28;20419;-69
2021/09/12 04:16:08;;;;;;;29.23;20.70;;;20.10;99.90;;;;;;4976317;28;20188;-69
2021/09/12 04:18:34;;;;;;;23.10;20.47;;;20.10;99.90;;;;;;4975518;28;20617;-74
2021/09/12 04:21:00;;;;;;;24.83;19.70;;;20.10;99.90;;;;;;4975780;28;20647;-69
2021/09/12 04:23:26;;;;;;;22.17;19.77;;;20.10;99.90;;;;;;4978086;28;20181;-69
2021/09/12 04:25:51;;;;;;;22.67;19.70;;;20.10;99.90;;;;;;4994239;28;20218;-69
2021/09/12 04:28:17;;;;;;;22.67;20.23;;;20.10;99.90;;;;;;4995310;28;20183;-69
2021/09/12 04:30:43;;;;;;;23.77;19.57;;;20.10;99.90;;;;;;5006155;28;20193;-69
2021/09/12 04:33:09;;;;;;;24.53;18.90;;;20.10;99.90;;;;;;4997314;28;20182;-68
2021/09/12 04:35:34;;;;;;;26.23;20.80;;;20.10;99.90;;;;;;5014471;28;20194;-73
2021/09/12 04:38:01;;;;;;;22.20;20.00;;;20.00;99.90;;;;;;4996424;28;20183;-70
2021/09/12 04:40:27;;;;;;;24.10;20.90;;;20.00;99.90;;;;;;4994606;28;20246;-69
2021/09/12 04:42:53;;;;;;;22.80;20.17;;;20.00;99.90;;;;;;4993814;28;20530;-68
2021/09/12 04:45:19;;;;;;;22.07;19.43;;;20.00;99.90;;;;;;4977529;28;20538;-68
2021/09/12 04:47:44;;;;;;;24.60;19.93;;;20.00;99.90;;;;;;4993873;28;20198;-68
2021/09/12 04:50:10;;;;;;;22.93;19.23;;;20.00;99.90;;;;;;4994706;28;20179;-69
2021/09/12 04:52:36;;;;;;;22.10;19.00;;;20.00;99.90;;;;;;4993873;28;20587;-72
2021/09/12 04:55:02;;;;;;;22.67;18.10;;;20.00;99.90;;;;;;4994128;28;20431;-68
2021/09/12 04:57:28;;;;;;;20.43;17.87;;;20.00;99.90;;;;;;4994307;28;20262;-69
2021/09/12 04:59:53;;;;;;;22.73;19.07;;;20.00;99.90;;;;;;4998433;28;20178;-68
2021/09/12 05:02:19;;;;;;;23.47;19.23;;;20.00;99.90;;;;;;4997779;28;20596;-69
2021/09/12 05:04:45;;;;;;;24.10;20.00;;;20.00;99.90;;;;;;4993362;28;20243;-69
2021/09/12 05:07:10;;;;;;;21.77;19.47;;;20.00;99.90;;;;;;4994595;28;20627;-68
2021/09/12 05:09:36;;;;;;;20.60;18.40;;;20.00;99.90;;;;;;4994207;28;20292;-73
2021/09/12 05:12:02;;;;;;;24.80;19.30;;;20.00;99.90;;;;;;4994153;28;20164;-68
2021/09/12 05:14:28;;;;;;;20.23;18.13;;;20.00;99.90;;;;;;4977079;28;20229;-69
2021/09/12 05:16:53;;;;;;;21.63;19.07;;;20.00;99.90;;;;;;4993349;28;20515;-69
2021/09/12 05:19:19;;;;;;;18.97;17.03;;;20.00;99.90;;;;;;4977009;28;20186;-69
2021/09/12 05:21:45;;;;;;;26.47;20.10;;;20.00;99.90;;;;;;4993457;28;20230;-69
2021/09/12 05:24:11;;;;;;;23.00;20.00;;;20.00;99.90;;;;;;4994180;28;20650;-69
2021/09/12 05:26:36;;;;;;;24.40;20.23;;;20.00;99.90;;;;;;4976305;28;20266;-73
2021/09/12 05:29:02;;;;;;;24.73;19.53;;;20.00;99.90;;;;;;4993654;28;20184;-68
2021/09/12 05:31:28;;;;;;;22.70;18.40;;;20.00;99.90;;;;;;4987695;28;20187;-68
2021/09/12 05:33:53;;;;;;;19.00;16.97;;;20.00;99.90;;;;;;4993152;28;20188;-69
2021/09/12 05:36:19;;;;;;;22.07;19.27;;;20.00;99.90;;;;;;4993487;28;20263;-69
2021/09/12 05:38:45;;;;;;;21.90;19.50;;;20.00;99.90;;;;;;4993033;28;20269;-68
2021/09/12 05:41:11;;;;;;;19.63;17.63;;;20.00;99.90;;;;;;4994316;28;20176;-68
2021/09/12 05:43:36;;;;;;;20.90;17.77;;;20.00;99.90;;;;;;4993546;28;20238;-68
2021/09/12 05:46:02;;;;;;;20.77;17.87;;;20.00;99.90;;;;;;4992556;28;20566;-68
2021/09/12 05:48:28;;;;;;;22.17;18.77;;;20.00;99.90;;;;;;4992508;28;20203;-68
2021/09/12 05:50:53;;;;;;;22.67;17.30;;;20.00;99.90;;;;;;4992776;28;20178;-68
2021/09/12 05:53:21;;;;;;;19.07;17.10;;;20.00;99.90;;;;;;4993649;28;20176;-68
2021/09/12 05:55:47;;;;;;;19.53;16.93;;;20.10;99.90;;;;;;4991491;28;20176;-68
2021/09/12 05:58:13;;;;;;;19.00;17.03;;;20.10;99.90;;;;;;4993033;28;20418;-68
2021/09/12 06:00:39;;;;;;;16.97;15.20;;;20.10;99.90;;;;;;4992343;28;20442;-73
2021/09/12 06:03:05;;;;;;;15.77;14.27;;;20.10;99.90;;;;;;4992139;28;20418;-68
2021/09/12 06:05:30;;;;;;;16.50;14.40;;;20.10;99.90;;;;;;4992326;28;20274;-68
2021/09/12 06:07:56;;;;;;;16.40;14.57;;;20.10;99.90;;;;;;4975307;28;20245;-68
2021/09/12 06:10:22;;;;;;;18.13;16.07;;;20.10;99.90;;;;;;4992823;28;20221;-68
2021/09/12 06:12:48;;;;;;;17.07;14.80;;;20.10;99.90;;;;;;4991397;28;20510;-67
2021/09/12 06:15:14;;;;;;;16.20;14.30;;;20.10;99.90;;;;;;4993283;28;20187;-68
2021/09/12 06:17:39;;;;;;;15.40;13.90;;;20.10;99.90;;;;;;4993108;28;20619;-73
2021/09/12 06:20:06;;;;;;;14.70;13.20;;;20.10;99.90;;;;;;4992571;28;20179;-68
2021/09/12 06:22:32;;;;;;;13.80;12.50;;;20.10;99.90;;;;;;4991360;28;20190;-68
2021/09/12 06:24:57;;;;;;;12.97;11.67;;;20.20;99.90;;;;;;4990812;28;20454;-68
2021/09/12 06:27:23;;;;;;;16.07;12.20;;;20.20;99.90;;;;;;4983837;28;20655;-68
2021/09/12 06:29:49;;;;;;;10.90;9.90;;;20.20;99.90;;;;;;5011788;28;20183;-68
2021/09/12 06:32:15;;;;;;;11.20;10.20;;;20.20;99.90;;;;;;5012643;28;20179;-68
2021/09/12 06:34:41;;;;;;;10.47;9.57;;;20.10;99.90;;;;;;5012450;28;20233;-72
2021/09/12 06:37:07;;;;;;;10.63;9.73;;;20.20;99.90;;;;;;5012217;28;20171;-67
2021/09/12 06:39:33;;;;;;;10.40;9.30;;;20.20;99.90;;;;;;5012573;28;20398;-68
2021/09/12 06:41:59;;;;;;;9.77;9.00;;;20.20;99.90;;;;;;4988537;28;20175;-68
2021/09/12 06:44:25;;;;;;;8.37;7.70;;;20.30;99.90;;;;;;4991909;28;20518;-68
2021/09/12 06:46:50;;;;;;;8.63;7.80;;;20.30;99.90;;;;;;4974174;28;20438;-68
2021/09/12 06:49:16;;;;;;;8.33;7.73;;;20.30;99.90;;;;;;4992912;28;20180;-68
2021/09/12 06:51:42;;;;;;;10.03;8.87;;;20.30;99.90;;;;;;4991544;28;20593;-73
2021/09/12 06:54:07;;;;;;;10.33;9.27;;;20.30;99.90;;;;;;4991939;28;20180;-72
2021/09/12 06:56:33;;;;;;;9.20;8.30;;;20.40;99.90;;;;;;4991757;28;20183;-72
2021/09/12 06:58:59;;;;;;;8.27;7.57;;;20.60;99.90;;;;;;4998587;28;20183;-72
2021/09/12 07:01:25;;;;;;;8.43;7.80;;;20.80;99.90;;;;;;4992131;28;20191;-72
2021/09/12 07:03:50;;;;;;;9.73;8.80;;;21.00;99.90;;;;;;4973457;28;20178;-69
2021/09/12 07:06:16;;;;;;;8.50;7.90;;;21.20;99.90;;;;;;4990877;28;20255;-71
2021/09/12 07:08:42;;;;;;;8.13;7.53;;;21.40;99.90;;;;;;4996036;28;20179;-70
2021/09/12 07:11:13;;;;;;;10.87;7.40;;;21.60;99.90;;;;;;4995906;28;20271;-71
2021/09/12 07:13:39;;;;;;;8.03;7.30;;;21.80;99.90;;;;;;4996745;28;20160;-71
2021/09/12 07:16:05;;;;;;;6.53;6.00;;;21.90;99.90;;;;;;4994429;28;21019;-71
2021/09/12 07:18:32;;;;;;;6.73;6.23;;;22.00;99.90;;;;;;4994674;28;20466;-72
2021/09/12 07:20:58;;;;;;;7.47;6.77;;;22.10;99.90;;;;;;4992013;28;20205;-71
2021/09/12 07:23:23;;;;;;;7.07;6.37;;;22.10;99.90;;;;;;4994854;28;20458;-71
2021/09/12 07:25:49;;;;;;;6.00;5.60;;;22.20;99.70;;;;;;4990574;28;20207;-71
2021/09/12 07:28:15;;;;;;;5.53;5.03;;;22.20;99.90;;;;;;4996080;28;20192;-71
2021/09/12 07:30:41;;;;;;;5.97;5.53;;;22.30;99.80;;;;;;4996168;28;20422;-71
2021/09/12 07:33:06;;;;;;;8.80;5.57;;;22.40;99.20;;;;;;4995504;28;20639;-71
2021/09/12 07:35:33;;;;;;;7.10;5.50;;;22.40;98.50;;;;;;4978662;28;20251;-71
2021/09/12 07:37:59;;;;;;;5.67;5.07;;;22.50;98.30;;;;;;4995254;28;20172;-71
2021/09/12 07:40:25;;;;;;;7.13;6.47;;;22.50;98.00;;;;;;4995988;28;20469;-70
2021/09/12 07:42:51;;;;;;;6.40;5.80;;;22.60;98.30;;;;;;4994927;28;20410;-71
2021/09/12 07:45:17;;;;;;;5.50;5.10;;;22.60;98.10;;;;;;4995694;28;20207;-71
2021/09/12 07:47:43;;;;;;;5.43;5.00;;;22.70;97.60;;;;;;4995930;28;20426;-70
2021/09/12 07:50:09;;;;;;;5.63;5.13;;;22.70;97.70;;;;;;4995095;28;20473;-71
2021/09/12 07:52:36;;;;;;;6.27;5.77;;;22.70;97.70;;;;;;4995925;28;20187;-70
2021/09/12 07:55:03;;;;;;;5.50;5.10;;;22.70;97.80;;;;;;4994531;28;20423;-71
2021/09/12 07:57:28;;;;;;;6.13;5.70;;;22.70;97.50;;;;;;5000409;28;20426;-70
2021/09/12 07:59:55;;;;;;;5.80;5.40;;;22.70;97.70;;;;;;5002614;28;20525;-71
2021/09/12 08:02:20;;;;;;;5.37;5.07;;;22.70;97.40;;;;;;4995519;28;20533;-70
2021/09/12 08:04:46;;;;;;;5.97;5.40;;;22.70;97.30;;;;;;4994318;28;20487;-76
2021/09/12 08:07:12;;;;;;;7.37;4.73;;;22.70;97.00;;;;;;4993619;28;20183;-71
2021/09/12 08:09:37;;;;;;;30.37;23.70;;;22.80;97.10;;;;;;4992977;28;20176;-71
2021/09/12 08:12:03;;;;;;;11.17;10.00;;;22.80;96.60;;;;;;4976688;28;20211;-70
2021/09/12 08:14:29;;;;;;;24.63;20.67;;;22.80;96.50;;;;;;4995238;28;20180;-70
2021/09/12 08:16:55;;;;;;;27.13;23.00;;;22.80;96.30;;;;;;4994015;28;20179;-70
2021/09/12 08:19:21;;;;;;;22.23;18.83;;;22.90;96.30;;;;;;4994086;28;20191;-70
2021/09/12 08:21:46;;;;;;;33.50;28.20;;;22.90;95.80;;;;;;4992234;28;20636;-77
2021/09/12 08:24:12;;;;;;;33.40;27.63;;;22.90;96.00;;;;;;4994456;28;20485;-70
2021/09/12 08:26:39;;;;;;;18.80;16.70;;;22.90;96.10;;;;;;4995283;28;20180;-70
2021/09/12 08:29:05;;;;;;;14.13;12.63;;;22.90;96.00;;;;;;5002383;28;20179;-70
2021/09/12 08:31:31;;;;;;;17.90;16.00;;;22.90;95.80;;;;;;4995218;28;20872;-70
2021/09/12 08:33:56;;;;;;;16.23;14.50;;;23.00;95.80;;;;;;4994501;28;20195;-71
2021/09/12 08:36:22;;;;;;;15.07;13.53;;;23.00;95.70;;;;;;4977459;28;20176;-70
2021/09/12 08:38:48;;;;;;;13.30;12.00;;;23.10;95.70;;;;;;4994472;28;20179;-77
2021/09/12 08:41:14;;;;;;;9.70;8.40;;;23.10;95.80;;;;;;4994795;28;20172;-70
2021/09/12 08:43:40;;;;;;;10.67;9.57;;;23.10;95.50;;;;;;4994778;28;20180;-70
2021/09/12 08:46:07;;;;;;;9.67;8.77;;;23.10;95.20;;;;;;4992322;28;20694;-70
2021/09/12 08:48:35;;;;;;;7.10;6.40;;;23.10;95.20;;;;;;4997242;28;20492;-70
2021/09/12 08:51:01;;;;;;;6.00;5.40;;;23.10;95.10;;;;;;4993154;28;20431;-69
2021/09/12 08:53:26;;;;;;;6.53;5.47;;;23.10;95.40;;;;;;4993028;28;20427;-69
2021/09/12 08:55:53;;;;;;;7.83;5.47;;;23.10;95.20;;;;;;4989594;28;20192;-69
2021/09/12 08:58:19;;;;;;;6.90;6.50;;;23.00;93.60;;;;;;4993102;28;20187;-69
2021/09/12 09:00:45;;;;;;;7.10;6.50;;;23.00;95.30;;;;;;4975628;28;20427;-69
2021/09/12 09:03:11;;;;;;;6.33;5.83;;;22.90;95.30;;;;;;4991886;28;20445;-69
2021/09/12 09:05:41;;;;;;;9.10;6.10;;;22.80;94.20;;;;;;4992894;28;20657;-69
2021/09/12 09:08:12;;;;;;;6.70;6.20;;;22.70;93.50;;;;;;4990247;28;21002;-69
2021/09/12 09:10:50;;;;;;;7.30;6.60;;;22.60;94.00;;;;;;4992273;28;20446;-69
2021/09/12 09:13:36;;;;;;;7.53;6.83;;;22.60;94.90;;;;;;4990709;28;20407;-69
2021/09/12 09:16:08;;;;;;;7.07;6.57;;;22.60;98.70;;;;;;4987760;28;20415;-68
2021/09/12 09:18:41;;;;;;;8.93;7.87;;;22.70;98.40;;;;;;4990536;28;20435;-69
2021/09/12 09:21:31;;;;;;;7.37;6.77;;;22.70;99.30;;;;;;4972294;28;20411;-68
2021/09/12 09:24:06;;;;;;;7.27;6.53;;;22.70;98.00;;;;;;4991779;28;20423;-67
2021/09/12 09:26:42;;;;;;;9.30;7.03;;;22.70;96.80;;;;;;4992957;28;20478;-67
2021/09/12 09:29:09;;;;;;;7.70;7.00;;;22.70;97.30;;;;;;4991271;28;20567;-68
2021/09/12 09:31:35;;;;;;;6.53;6.07;;;22.70;97.30;;;;;;4984274;28;20772;-70
2021/09/12 09:34:20;;;;;;;326.43;234.30;;;22.70;96.50;;;;;;4988965;28;20949;-69
2021/09/12 09:36:50;;;;;;;34.30;29.73;;;22.60;96.40;;;;;;4974960;28;20431;-70
2021/09/12 09:39:43;;;;;;;7.50;6.90;;;22.60;96.50;;;;;;4992429;28;21004;-70
2021/09/12 09:42:31;;;;;;;6.63;6.00;;;22.60;96.10;;;;;;4987504;28;20411;-70
2021/09/12 09:45:05;;;;;;;8.43;7.73;;;22.60;96.90;;;;;;4991108;28;20514;-69
2021/09/12 09:47:31;;;;;;;8.70;6.93;;;22.60;96.70;;;;;;4991610;28;20430;-69
2021/09/12 09:50:29;;;;;;;10.90;9.93;;;22.50;96.80;;;;;;4967588;28;20424;-69
2021/09/12 09:52:56;;;;;;;7.80;7.03;;;22.50;97.40;;;;;;4991887;28;20434;-72
2021/09/12 09:55:24;;;;;;;6.33;5.83;;;22.50;96.90;;;;;;4975080;28;20411;-69
2021/09/12 09:57:52;;;;;;;7.00;6.30;;;22.50;96.30;;;;;;4992932;28;20414;-76
2021/09/12 10:00:19;;;;;;;7.00;5.80;;;22.50;95.90;;;;;;4993513;28;20407;-69
2021/09/12 10:02:45;;;;;;;6.23;5.53;;;22.40;95.70;;;;;;4992469;28;20446;-71
2021/09/12 10:05:13;;;;;;;8.13;6.17;;;22.30;95.00;;;;;;4992067;28;20478;-68
2021/09/12 10:07:40;;;;;;;50.53;43.20;;;22.30;95.40;;;;;;4992394;28;20442;-68
2021/09/12 10:10:12;;;;;;;132.87;94.40;;;22.30;95.30;;;;;;4991639;28;20418;-71
2021/09/12 10:12:41;;;;;;;35.40;30.30;;;22.30;95.20;;;;;;4992644;28;20498;-69
2021/09/12 10:15:12;;;;;;;7.70;6.90;;;22.30;95.30;;;;;;4992086;28;20442;-69
2021/09/12 10:17:42;;;;;;;7.53;5.80;;;22.20;95.60;;;;;;4993286;28;20414;-71
2021/09/12 10:20:16;;;;;;;6.30;5.80;;;22.10;95.50;;;;;;4991738;28;20660;-72
2021/09/12 10:23:12;;;;;;;8.10;7.30;;;22.00;96.10;;;;;;4992875;28;20497;-72
2021/09/12 10:25:50;;;;;;;6.00;5.50;;;21.90;96.50;;;;;;4993141;28;20544;-72
2021/09/12 10:28:32;;;;;;;6.03;5.53;;;21.90;96.40;;;;;;4992944;28;20414;-72
2021/09/12 10:31:00;;;;;;;6.87;6.30;;;22.00;96.80;;;;;;4992299;28;20407;-72
2021/09/12 10:33:27;;;;;;;6.47;5.93;;;22.10;98.40;;;;;;4993111;28;20407;-72
2021/09/12 10:36:18;;;;;;;6.03;5.50;;;22.30;96.30;;;;;;4992380;28;20426;-72
2021/09/12 10:38:44;;;;;;;6.30;5.77;;;22.60;96.60;;;;;;4992494;28;20427;-72
2021/09/12 10:41:11;;;;;;;7.37;5.90;;;22.90;95.50;;;;;;4991871;28;20403;-72
2021/09/12 10:43:37;;;;;;;6.70;6.17;;;23.20;94.80;;;;;;4975610;28;20407;-72
2021/09/12 10:46:08;;;;;;;6.67;6.27;;;23.30;94.30;;;;;;4992076;28;20512;-72
2021/09/12 10:48:35;;;;;;;6.57;6.17;;;23.50;93.70;;;;;;4975348;28;20624;-72
2021/09/12 10:51:03;;;;;;;7.20;6.70;;;23.70;93.80;;;;;;4992142;28;20423;-72
2021/09/12 10:53:47;;;;;;;6.40;5.90;;;23.80;94.50;;;;;;4959347;28;20418;-72
2021/09/12 10:56:15;;;;;;;6.57;5.97;;;24.10;94.50;;;;;;4992028;28;20486;-72
2021/09/12 10:58:49;;;;;;;6.80;6.20;;;24.20;92.30;;;;;;4992785;28;20767;-72
2021/09/12 11:01:27;;;;;;;14.60;11.37;;;24.40;93.70;;;;;;4991904;28;20395;-72
2021/09/12 11:03:58;;;;;;;15.37;12.73;;;24.70;92.70;;;;;;4992109;28;20411;-76
2021/09/12 11:06:25;;;;;;;7.70;7.10;;;24.80;92.00;;;;;;4992773;28;21004;-72
2021/09/12 11:08:51;;;;;;;8.83;8.13;;;24.80;92.10;;;;;;4975105;28;20438;-75
2021/09/12 11:11:17;;;;;;;6.60;6.10;;;24.80;91.70;;;;;;4992555;28;20418;-72
2021/09/12 11:13:42;;;;;;;6.90;6.20;;;24.70;91.30;;;;;;4992700;28;20407;-72
2021/09/12 11:16:14;;;;;;;6.53;6.13;;;24.70;91.60;;;;;;4974399;28;20268;-72
2021/09/12 11:19:00;;;;;;;8.10;7.50;;;24.60;90.60;;;;;;4992476;28;20180;-72
2021/09/12 11:21:35;;;;;;;8.40;7.93;;;24.50;90.80;;;;;;4992836;28;20407;-72
2021/09/12 11:24:05;;;;;;;9.17;8.40;;;24.30;90.90;;;;;;4991921;28;20411;-72
2021/09/12 11:26:40;;;;;;;6.83;6.33;;;24.20;90.20;;;;;;4992434;28;20482;-72
2021/09/12 11:29:16;;;;;;;8.27;7.50;;;24.00;91.40;;;;;;4989988;28;20425;-69
2021/09/12 11:31:45;;;;;;;7.90;7.30;;;24.00;92.20;;;;;;4971379;28;20764;-69
2021/09/12 11:34:12;;;;;;;24.83;21.80;;;23.90;91.70;;;;;;4987220;28;20457;-69
2021/09/12 11:36:46;;;;;;;17.03;15.23;;;23.80;91.20;;;;;;4990390;28;20454;-70
2021/09/12 11:39:13;;;;;;;16.13;14.70;;;24.00;91.70;;;;;;4989682;28;20410;-70
2021/09/12 11:41:41;;;;;;;15.27;13.83;;;24.00;91.00;;;;;;4991176;28;20852;-69
2021/09/12 11:44:07;;;;;;;8.20;7.50;;;23.90;91.30;;;;;;4990166;28;20407;-69
2021/09/12 11:46:33;;;;;;;12.60;11.57;;;23.90;89.30;;;;;;4990317;28;20454;-70
2021/09/12 11:49:06;;;;;;;12.40;11.40;;;24.00;91.30;;;;;;4989617;28;20441;-69
2021/09/12 11:51:37;;;;;;;8.50;7.83;;;24.10;91.20;;;;;;4990987;28;20194;-70
2021/09/12 11:54:17;;;;;;;9.40;8.70;;;24.20;91.20;;;;;;4992904;28;20415;-69
2021/09/12 11:56:44;;;;;;;6.63;6.23;;;24.30;90.80;;;;;;4988689;28;20414;-70
2021/09/12 11:59:14;;;;;;;6.63;6.13;;;24.50;89.90;;;;;;4994593;28;20415;-69
2021/09/12 12:01:41;;;;;;;10.50;9.50;;;24.60;88.90;;;;;;4995361;28;20411;-69
2021/09/12 12:04:07;;;;;;;8.47;7.83;;;24.70;90.60;;;;;;4982724;28;20419;-70
2021/09/12 12:06:34;;;;;;;8.20;7.60;;;24.80;89.30;;;;;;4994322;28;20895;-69
2021/09/12 12:09:30;;;;;;;9.03;8.33;;;24.80;90.30;;;;;;4994020;28;20423;-69
2021/09/12 12:12:06;;;;;;;7.10;6.70;;;24.90;90.10;;;;;;4994260;28;20395;-72
2021/09/12 12:14:33;;;;;;;8.10;6.80;;;24.90;88.70;;;;;;4991573;28;20950;-69
2021/09/12 12:17:04;;;;;;;7.47;6.97;;;24.80;84.70;;;;;;4988824;28;20422;-70
2021/09/12 12:19:34;;;;;;;6.93;6.43;;;24.70;85.40;;;;;;4994024;28;20465;-69
2021/09/12 12:22:05;;;;;;;6.63;6.23;;;24.80;84.70;;;;;;4993336;28;20785;-69
2021/09/12 12:24:36;;;;;;;7.37;6.67;;;24.80;84.50;;;;;;4973485;28;20419;-70
2021/09/12 12:27:07;;;;;;;7.40;6.90;;;24.80;84.00;;;;;;4992743;28;20447;-68
2021/09/12 12:29:34;;;;;;;8.20;7.60;;;24.80;86.90;;;;;;4991667;28;20461;-69
2021/09/12 12:32:03;;;;;;;10.30;7.33;;;24.80;87.90;;;;;;4990875;28;20764;-68
2021/09/12 12:34:36;;;;;;;6.80;6.43;;;24.70;87.40;;;;;;4990418;28;20419;-70